This is the latest recevied weather packets stored in our database for station/object OE7BJT-13. If no packets are shown the sender has not sent any weather packets the latest 10 day(s).
| Time | Temp. | Humidity | Pressure | Rain* | Wind** | Luminosity | Snow |
|---|---|---|---|---|---|---|---|
| 1777117004 | 23.33° C | 22% | 1016 hPa | - | - | - | - |
| 1777116398 | 23.89° C | 22% | 1016 hPa | - | - | - | - |
| 1777115793 | 23.33° C | 21% | 1016 hPa | - | - | - | - |
| 1777115187 | 23.33° C | 22% | 1016 hPa | - | - | - | - |
| 1777114581 | 23.33° C | 22% | 1016 hPa | - | - | - | - |
| 1777113976 | 22.78° C | 23% | 1016 hPa | - | - | - | - |
| 1777113370 | 23.33° C | 21% | 1017 hPa | - | - | - | - |
| 1777112765 | 22.22° C | 23% | 1017 hPa | - | - | - | - |
| 1777112159 | 21.11° C | 23% | 1017 hPa | - | - | - | - |
| 1777110948 | 22.22° C | 27% | 1017 hPa | - | - | - | - |
| 1777110342 | 21.67° C | 28% | 1017 hPa | - | - | - | - |
| 1777109737 | 21.11° C | 26% | 1017 hPa | - | - | - | - |
| 1777109131 | 21.11° C | 30% | 1017 hPa | - | - | - | - |
| 1777107920 | 19.44° C | 36% | 1018 hPa | - | - | - | - |
| 1777107314 | 18.89° C | 36% | 1018 hPa | - | - | - | - |
| 1777106709 | 17.22° C | 38% | 1018 hPa | - | - | - | - |
| 1777106103 | 18.89° C | 35% | 1018 hPa | - | - | - | - |
| 1777105497 | 16.11° C | 41% | 1018 hPa | - | - | - | - |
| 1777104892 | 17.22° C | 38% | 1018 hPa | - | - | - | - |
| 1777101258 | 11.11° C | 51% | 1019 hPa | - | - | - | - |
| 1777100653 | 10.56° C | 54% | 1019 hPa | - | - | - | - |
| 1777100047 | 10° C | 62% | 1019 hPa | - | - | - | - |
| 1777099442 | 7.78° C | 68% | 1019 hPa | - | - | - | - |
| 1777098836 | 8.33° C | 70% | 1019 hPa | - | - | - | - |
| 1777098230 | 7.22° C | 73% | 1019 hPa | - | - | - | - |
* Rain since midnight (hover to see other rain measurements)
** Current wind speed in m/s (hover to see current wind gust speed)